Eagle Rock, Idaho
Current Conditions -  °F | °C
As of 12:53 AM on Thursday 23 Oct 2014 (Local Time) from KIDA Reporting Station
Clear Clear  
Wind Chill: 33°   Ceiling: Unl
Heat Index: 37°   Visibility: 10mi
Dew Point: 30°   Wind: 5mph
Humidity: 76%   Direction: 350°N
Pressure: 30.14"   Gusts: NA
Location:  43.5246°N, 112.143°W
Report Text: KIDA 230653Z 35004KT 10SM CLR 03/M01 A3014 RMK AO2 SLP206 T00281011 401331006
Loading
Personal Weather Stations






























Interactive Weather Map
Tropical Storm Tracking
New forecast layout! Learn more

10-Day Weather Forecast

Advertisements
Track Severe Weather on mobile